sensor_id;sensor_type;location;lat;lon;timestamp;P1;durP1;ratioP1;P2;durP2;ratioP2
44774;SDS011;31340;51.402;0.016;2022-11-03T00:02:12;14.57;;;2.95;;
44774;SDS011;31340;51.402;0.016;2022-11-03T00:04:41;16.20;;;3.33;;
44774;SDS011;31340;51.402;0.016;2022-11-03T00:07:09;17.95;;;2.55;;
44774;SDS011;31340;51.402;0.016;2022-11-03T00:09:37;12.23;;;2.45;;
44774;SDS011;31340;51.402;0.016;2022-11-03T00:12:05;11.80;;;2.17;;
44774;SDS011;31340;51.402;0.016;2022-11-03T00:14:34;9.43;;;2.08;;
44774;SDS011;31340;51.402;0.016;2022-11-03T00:17:05;13.00;;;1.88;;
44774;SDS011;31340;51.402;0.016;2022-11-03T00:19:32;11.25;;;2.65;;
44774;SDS011;31340;51.402;0.016;2022-11-03T00:22:00;11.32;;;1.92;;
44774;SDS011;31340;51.402;0.016;2022-11-03T00:24:28;8.25;;;1.50;;
44774;SDS011;31340;51.402;0.016;2022-11-03T00:26:57;8.10;;;1.45;;
44774;SDS011;31340;51.402;0.016;2022-11-03T00:29:25;4.88;;;1.50;;
44774;SDS011;31340;51.402;0.016;2022-11-03T00:31:53;6.82;;;2.22;;
44774;SDS011;31340;51.402;0.016;2022-11-03T00:34:20;4.13;;;1.30;;
44774;SDS011;31340;51.402;0.016;2022-11-03T00:36:48;5.97;;;1.40;;
44774;SDS011;31340;51.402;0.016;2022-11-03T00:39:15;6.88;;;1.33;;
44774;SDS011;31340;51.402;0.016;2022-11-03T00:41:43;4.40;;;1.40;;
44774;SDS011;31340;51.402;0.016;2022-11-03T00:44:10;8.48;;;1.70;;
44774;SDS011;31340;51.402;0.016;2022-11-03T00:46:39;6.00;;;1.55;;
44774;SDS011;31340;51.402;0.016;2022-11-03T00:49:07;7.10;;;1.88;;
44774;SDS011;31340;51.402;0.016;2022-11-03T00:51:35;8.10;;;1.60;;
44774;SDS011;31340;51.402;0.016;2022-11-03T00:54:04;6.40;;;1.42;;
44774;SDS011;31340;51.402;0.016;2022-11-03T00:56:34;7.85;;;1.63;;
44774;SDS011;31340;51.402;0.016;2022-11-03T00:59:04;10.88;;;1.58;;
44774;SDS011;31340;51.402;0.016;2022-11-03T01:01:37;7.55;;;1.67;;
44774;SDS011;31340;51.402;0.016;2022-11-03T01:04:14;4.00;;;1.23;;
44774;SDS011;31340;51.402;0.016;2022-11-03T01:07:03;5.95;;;1.08;;
44774;SDS011;31340;51.402;0.016;2022-11-03T01:14:44;14.45;;;2.05;;
44774;SDS011;31340;51.402;0.016;2022-11-03T01:17:17;2.70;;;0.98;;
44774;SDS011;31340;51.402;0.016;2022-11-03T01:19:46;3.65;;;1.23;;
44774;SDS011;31340;51.402;0.016;2022-11-03T01:22:14;6.65;;;1.08;;
44774;SDS011;31340;51.402;0.016;2022-11-03T01:24:42;6.47;;;1.13;;
44774;SDS011;31340;51.402;0.016;2022-11-03T01:27:12;5.80;;;1.00;;
44774;SDS011;31340;51.402;0.016;2022-11-03T01:29:41;3.08;;;1.25;;
44774;SDS011;31340;51.402;0.016;2022-11-03T01:32:10;4.60;;;1.05;;
44774;SDS011;31340;51.402;0.016;2022-11-03T01:34:38;4.43;;;1.13;;
44774;SDS011;31340;51.402;0.016;2022-11-03T01:37:06;5.03;;;0.90;;
44774;SDS011;31340;51.402;0.016;2022-11-03T01:39:33;3.22;;;0.80;;
44774;SDS011;31340;51.402;0.016;2022-11-03T01:42:01;4.15;;;0.80;;
44774;SDS011;31340;51.402;0.016;2022-11-03T01:44:36;2.38;;;0.70;;
44774;SDS011;31340;51.402;0.016;2022-11-03T01:47:14;4.05;;;0.82;;
44774;SDS011;31340;51.402;0.016;2022-11-03T01:52:31;4.68;;;1.05;;
44774;SDS011;31340;51.402;0.016;2022-11-03T01:55:06;5.63;;;1.00;;
44774;SDS011;31340;51.402;0.016;2022-11-03T01:57:54;4.63;;;0.80;;
44774;SDS011;31340;51.402;0.016;2022-11-03T02:00:27;4.20;;;0.70;;
44774;SDS011;31340;51.402;0.016;2022-11-03T02:02:54;4.40;;;0.82;;
44774;SDS011;31340;51.402;0.016;2022-11-03T02:05:23;2.08;;;0.60;;
44774;SDS011;31340;51.402;0.016;2022-11-03T02:07:56;2.75;;;0.80;;
44774;SDS011;31340;51.402;0.016;2022-11-03T02:10:31;2.13;;;0.70;;
44774;SDS011;31340;51.402;0.016;2022-11-03T02:13:00;3.00;;;0.82;;
44774;SDS011;31340;51.402;0.016;2022-11-03T02:15:29;3.42;;;0.85;;
44774;SDS011;31340;51.402;0.016;2022-11-03T02:17:58;6.15;;;0.88;;
44774;SDS011;31340;51.402;0.016;2022-11-03T02:20:28;6.43;;;0.70;;
44774;SDS011;31340;51.402;0.016;2022-11-03T02:25:54;2.58;;;0.65;;
44774;SDS011;31340;51.402;0.016;2022-11-03T02:28:24;3.38;;;0.65;;
44774;SDS011;31340;51.402;0.016;2022-11-03T02:34:07;5.82;;;1.27;;
44774;SDS011;31340;51.402;0.016;2022-11-03T02:36:55;5.68;;;1.10;;
44774;SDS011;31340;51.402;0.016;2022-11-03T02:39:29;5.43;;;1.10;;
44774;SDS011;31340;51.402;0.016;2022-11-03T02:42:02;7.85;;;1.48;;
44774;SDS011;31340;51.402;0.016;2022-11-03T02:44:31;9.57;;;1.40;;
44774;SDS011;31340;51.402;0.016;2022-11-03T02:47:00;9.07;;;1.63;;
44774;SDS011;31340;51.402;0.016;2022-11-03T02:49:36;5.07;;;1.45;;
44774;SDS011;31340;51.402;0.016;2022-11-03T03:01:10;10.10;;;1.65;;
44774;SDS011;31340;51.402;0.016;2022-11-03T03:03:54;11.00;;;1.50;;
44774;SDS011;31340;51.402;0.016;2022-11-03T03:06:33;19.05;;;2.35;;
44774;SDS011;31340;51.402;0.016;2022-11-03T03:09:09;15.35;;;2.63;;
44774;SDS011;31340;51.402;0.016;2022-11-03T03:11:40;17.55;;;2.70;;
44774;SDS011;31340;51.402;0.016;2022-11-03T03:16:42;15.63;;;2.83;;
44774;SDS011;31340;51.402;0.016;2022-11-03T03:19:37;23.25;;;3.65;;
44774;SDS011;31340;51.402;0.016;2022-11-03T03:22:49;20.35;;;3.03;;
44774;SDS011;31340;51.402;0.016;2022-11-03T03:25:41;14.40;;;2.42;;
44774;SDS011;31340;51.402;0.016;2022-11-03T03:28:19;20.33;;;2.72;;
44774;SDS011;31340;51.402;0.016;2022-11-03T03:30:51;24.10;;;3.55;;
44774;SDS011;31340;51.402;0.016;2022-11-03T03:33:22;18.88;;;3.33;;
44774;SDS011;31340;51.402;0.016;2022-11-03T03:35:57;18.50;;;3.17;;
44774;SDS011;31340;51.402;0.016;2022-11-03T03:38:31;21.05;;;3.20;;
44774;SDS011;31340;51.402;0.016;2022-11-03T03:41:05;16.98;;;3.80;;
44774;SDS011;31340;51.402;0.016;2022-11-03T03:43:36;14.88;;;3.30;;
44774;SDS011;31340;51.402;0.016;2022-11-03T03:46:06;13.70;;;2.97;;
44774;SDS011;31340;51.402;0.016;2022-11-03T03:48:37;14.93;;;3.80;;
44774;SDS011;31340;51.402;0.016;2022-11-03T03:51:05;16.90;;;3.15;;
44774;SDS011;31340;51.402;0.016;2022-11-03T03:53:34;16.25;;;2.78;;
44774;SDS011;31340;51.402;0.016;2022-11-03T03:56:02;14.45;;;2.60;;
44774;SDS011;31340;51.402;0.016;2022-11-03T03:58:32;14.80;;;2.92;;
44774;SDS011;31340;51.402;0.016;2022-11-03T04:01:00;18.35;;;3.67;;
44774;SDS011;31340;51.402;0.016;2022-11-03T04:03:28;15.27;;;3.08;;
44774;SDS011;31340;51.402;0.016;2022-11-03T04:05:59;14.05;;;2.58;;
44774;SDS011;31340;51.402;0.016;2022-11-03T04:08:29;10.65;;;2.38;;
44774;SDS011;31340;51.402;0.016;2022-11-03T04:10:57;10.37;;;2.40;;
44774;SDS011;31340;51.402;0.016;2022-11-03T04:13:43;9.55;;;2.15;;
44774;SDS011;31340;51.402;0.016;2022-11-03T04:16:29;7.15;;;1.85;;
44774;SDS011;31340;51.402;0.016;2022-11-03T04:19:16;7.07;;;1.80;;
44774;SDS011;31340;51.402;0.016;2022-11-03T04:22:23;12.52;;;2.00;;
44774;SDS011;31340;51.402;0.016;2022-11-03T04:24:55;11.30;;;2.10;;
44774;SDS011;31340;51.402;0.016;2022-11-03T04:27:29;13.73;;;2.17;;
44774;SDS011;31340;51.402;0.016;2022-11-03T04:30:06;13.68;;;1.80;;
44774;SDS011;31340;51.402;0.016;2022-11-03T04:32:39;12.82;;;2.22;;
44774;SDS011;31340;51.402;0.016;2022-11-03T04:35:25;14.05;;;2.15;;
44774;SDS011;31340;51.402;0.016;2022-11-03T04:37:59;12.25;;;2.00;;
44774;SDS011;31340;51.402;0.016;2022-11-03T04:40:32;10.98;;;2.10;;
44774;SDS011;31340;51.402;0.016;2022-11-03T04:42:59;12.15;;;1.92;;
44774;SDS011;31340;51.402;0.016;2022-11-03T04:45:31;15.27;;;2.38;;
44774;SDS011;31340;51.402;0.016;2022-11-03T04:50:51;11.38;;;2.10;;
44774;SDS011;31340;51.402;0.016;2022-11-03T04:53:21;11.53;;;2.20;;
44774;SDS011;31340;51.402;0.016;2022-11-03T04:55:50;15.90;;;2.30;;
44774;SDS011;31340;51.402;0.016;2022-11-03T05:00:54;8.88;;;2.22;;
44774;SDS011;31340;51.402;0.016;2022-11-03T05:03:26;11.48;;;1.75;;
44774;SDS011;31340;51.402;0.016;2022-11-03T05:06:01;12.45;;;2.13;;
44774;SDS011;31340;51.402;0.016;2022-11-03T05:08:41;10.48;;;2.00;;
44774;SDS011;31340;51.402;0.016;2022-11-03T05:13:47;11.38;;;1.90;;
44774;SDS011;31340;51.402;0.016;2022-11-03T05:16:17;8.15;;;2.17;;
44774;SDS011;31340;51.402;0.016;2022-11-03T05:18:45;9.77;;;2.08;;
44774;SDS011;31340;51.402;0.016;2022-11-03T05:21:16;8.70;;;1.90;;
44774;SDS011;31340;51.402;0.016;2022-11-03T05:23:51;8.52;;;1.85;;
44774;SDS011;31340;51.402;0.016;2022-11-03T05:26:28;8.75;;;2.15;;
44774;SDS011;31340;51.402;0.016;2022-11-03T05:31:29;9.10;;;1.63;;
44774;SDS011;31340;51.402;0.016;2022-11-03T05:34:00;7.85;;;1.60;;
44774;SDS011;31340;51.402;0.016;2022-11-03T05:36:30;12.20;;;1.57;;
44774;SDS011;31340;51.402;0.016;2022-11-03T05:39:01;10.65;;;1.80;;
44774;SDS011;31340;51.402;0.016;2022-11-03T05:41:46;6.70;;;1.73;;
44774;SDS011;31340;51.402;0.016;2022-11-03T05:47:00;10.82;;;2.78;;
44774;SDS011;31340;51.402;0.016;2022-11-03T05:49:34;12.85;;;2.47;;
44774;SDS011;31340;51.402;0.016;2022-11-03T05:52:01;16.85;;;2.83;;
44774;SDS011;31340;51.402;0.016;2022-11-03T05:54:31;18.40;;;3.40;;
44774;SDS011;31340;51.402;0.016;2022-11-03T05:57:01;17.17;;;3.40;;
44774;SDS011;31340;51.402;0.016;2022-11-03T05:59:41;15.73;;;2.83;;
44774;SDS011;31340;51.402;0.016;2022-11-03T06:04:48;17.00;;;2.70;;
44774;SDS011;31340;51.402;0.016;2022-11-03T06:09:56;16.70;;;3.50;;
44774;SDS011;31340;51.402;0.016;2022-11-03T06:12:25;19.10;;;3.67;;
44774;SDS011;31340;51.402;0.016;2022-11-03T06:14:55;16.45;;;4.65;;
44774;SDS011;31340;51.402;0.016;2022-11-03T06:17:23;22.67;;;3.90;;
44774;SDS011;31340;51.402;0.016;2022-11-03T06:19:55;19.80;;;3.20;;
44774;SDS011;31340;51.402;0.016;2022-11-03T06:22:29;20.30;;;3.78;;
44774;SDS011;31340;51.402;0.016;2022-11-03T06:27:47;11.70;;;2.88;;
44774;SDS011;31340;51.402;0.016;2022-11-03T06:30:48;22.13;;;3.88;;
44774;SDS011;31340;51.402;0.016;2022-11-03T06:33:18;12.05;;;2.50;;
44774;SDS011;31340;51.402;0.016;2022-11-03T06:35:49;7.75;;;2.20;;
44774;SDS011;31340;51.402;0.016;2022-11-03T06:38:23;6.85;;;1.25;;
44774;SDS011;31340;51.402;0.016;2022-11-03T06:40:52;5.78;;;1.10;;
44774;SDS011;31340;51.402;0.016;2022-11-03T06:43:22;4.05;;;0.95;;
44774;SDS011;31340;51.402;0.016;2022-11-03T06:45:54;3.13;;;0.80;;
44774;SDS011;31340;51.402;0.016;2022-11-03T06:48:25;3.63;;;0.57;;
44774;SDS011;31340;51.402;0.016;2022-11-03T06:50:55;3.97;;;0.70;;
44774;SDS011;31340;51.402;0.016;2022-11-03T06:53:25;1.25;;;0.45;;
44774;SDS011;31340;51.402;0.016;2022-11-03T06:55:55;4.28;;;0.73;;
44774;SDS011;31340;51.402;0.016;2022-11-03T06:58:30;7.95;;;1.35;;
44774;SDS011;31340;51.402;0.016;2022-11-03T07:01:02;5.57;;;1.40;;
44774;SDS011;31340;51.402;0.016;2022-11-03T07:03:38;6.85;;;1.63;;
44774;SDS011;31340;51.402;0.016;2022-11-03T07:13:36;7.15;;;1.27;;
44774;SDS011;31340;51.402;0.016;2022-11-03T07:16:10;9.48;;;2.38;;
44774;SDS011;31340;51.402;0.016;2022-11-03T07:18:44;12.93;;;2.03;;
44774;SDS011;31340;51.402;0.016;2022-11-03T07:21:33;12.45;;;1.83;;
44774;SDS011;31340;51.402;0.016;2022-11-03T07:24:14;11.45;;;1.80;;
44774;SDS011;31340;51.402;0.016;2022-11-03T07:26:45;10.65;;;2.03;;
44774;SDS011;31340;51.402;0.016;2022-11-03T07:29:19;11.98;;;2.65;;
44774;SDS011;31340;51.402;0.016;2022-11-03T07:31:48;9.55;;;2.08;;
44774;SDS011;31340;51.402;0.016;2022-11-03T07:34:22;12.27;;;1.98;;
44774;SDS011;31340;51.402;0.016;2022-11-03T07:36:54;9.95;;;2.28;;
44774;SDS011;31340;51.402;0.016;2022-11-03T07:39:25;10.07;;;2.28;;
44774;SDS011;31340;51.402;0.016;2022-11-03T07:41:58;11.18;;;2.40;;
44774;SDS011;31340;51.402;0.016;2022-11-03T07:44:28;14.37;;;2.10;;
44774;SDS011;31340;51.402;0.016;2022-11-03T07:46:56;6.60;;;1.70;;
44774;SDS011;31340;51.402;0.016;2022-11-03T07:49:25;10.85;;;2.08;;
44774;SDS011;31340;51.402;0.016;2022-11-03T07:51:58;13.82;;;2.30;;
44774;SDS011;31340;51.402;0.016;2022-11-03T07:54:29;7.35;;;2.38;;
44774;SDS011;31340;51.402;0.016;2022-11-03T07:57:03;11.05;;;2.22;;
44774;SDS011;31340;51.402;0.016;2022-11-03T07:59:47;10.40;;;2.65;;
44774;SDS011;31340;51.402;0.016;2022-11-03T08:07:16;9.52;;;2.03;;
44774;SDS011;31340;51.402;0.016;2022-11-03T08:09:43;8.00;;;2.35;;
44774;SDS011;31340;51.402;0.016;2022-11-03T08:12:11;11.05;;;2.28;;
44774;SDS011;31340;51.402;0.016;2022-11-03T08:14:38;7.55;;;2.08;;
44774;SDS011;31340;51.402;0.016;2022-11-03T08:17:06;7.35;;;1.77;;
44774;SDS011;31340;51.402;0.016;2022-11-03T08:19:34;5.25;;;1.63;;
44774;SDS011;31340;51.402;0.016;2022-11-03T08:22:02;6.82;;;1.48;;
44774;SDS011;31340;51.402;0.016;2022-11-03T08:24:30;6.03;;;1.52;;
44774;SDS011;31340;51.402;0.016;2022-11-03T08:26:58;5.55;;;1.48;;
44774;SDS011;31340;51.402;0.016;2022-11-03T08:29:26;6.95;;;1.85;;
44774;SDS011;31340;51.402;0.016;2022-11-03T08:31:54;11.27;;;1.90;;
44774;SDS011;31340;51.402;0.016;2022-11-03T08:34:22;4.43;;;1.60;;
44774;SDS011;31340;51.402;0.016;2022-11-03T08:36:50;7.72;;;2.45;;
44774;SDS011;31340;51.402;0.016;2022-11-03T08:39:17;4.53;;;1.40;;
44774;SDS011;31340;51.402;0.016;2022-11-03T08:41:45;4.07;;;1.75;;
44774;SDS011;31340;51.402;0.016;2022-11-03T08:44:13;5.82;;;1.25;;
44774;SDS011;31340;51.402;0.016;2022-11-03T08:46:41;10.73;;;1.58;;
44774;SDS011;31340;51.402;0.016;2022-11-03T08:49:08;6.43;;;1.80;;
44774;SDS011;31340;51.402;0.016;2022-11-03T08:51:36;6.32;;;1.52;;
44774;SDS011;31340;51.402;0.016;2022-11-03T08:54:10;9.60;;;1.77;;
44774;SDS011;31340;51.402;0.016;2022-11-03T08:56:38;6.18;;;1.40;;
44774;SDS011;31340;51.402;0.016;2022-11-03T08:59:05;6.68;;;2.00;;
44774;SDS011;31340;51.402;0.016;2022-11-03T09:01:33;4.05;;;1.20;;
44774;SDS011;31340;51.402;0.016;2022-11-03T09:04:01;5.47;;;1.30;;
44774;SDS011;31340;51.402;0.016;2022-11-03T09:06:29;7.97;;;1.55;;
44774;SDS011;31340;51.402;0.016;2022-11-03T09:08:57;5.20;;;1.52;;
44774;SDS011;31340;51.402;0.016;2022-11-03T09:11:46;3.63;;;1.10;;
44774;SDS011;31340;51.402;0.016;2022-11-03T09:14:14;3.00;;;1.02;;
44774;SDS011;31340;51.402;0.016;2022-11-03T09:16:43;5.70;;;1.75;;
44774;SDS011;31340;51.402;0.016;2022-11-03T09:19:11;5.78;;;1.52;;
44774;SDS011;31340;51.402;0.016;2022-11-03T09:21:39;6.35;;;2.05;;
44774;SDS011;31340;51.402;0.016;2022-11-03T09:24:07;9.23;;;1.98;;
44774;SDS011;31340;51.402;0.016;2022-11-03T09:26:35;6.00;;;1.38;;
44774;SDS011;31340;51.402;0.016;2022-11-03T09:29:04;6.90;;;1.75;;
44774;SDS011;31340;51.402;0.016;2022-11-03T09:31:32;9.88;;;2.85;;
44774;SDS011;31340;51.402;0.016;2022-11-03T09:33:59;6.18;;;1.48;;
44774;SDS011;31340;51.402;0.016;2022-11-03T09:36:27;6.53;;;2.03;;
44774;SDS011;31340;51.402;0.016;2022-11-03T09:38:54;4.35;;;1.25;;
44774;SDS011;31340;51.402;0.016;2022-11-03T09:41:22;5.32;;;1.30;;
44774;SDS011;31340;51.402;0.016;2022-11-03T09:43:55;4.07;;;1.80;;
44774;SDS011;31340;51.402;0.016;2022-11-03T09:46:24;6.50;;;1.20;;
44774;SDS011;31340;51.402;0.016;2022-11-03T09:48:54;3.60;;;1.20;;
44774;SDS011;31340;51.402;0.016;2022-11-03T09:51:23;7.43;;;1.40;;
44774;SDS011;31340;51.402;0.016;2022-11-03T09:54:02;7.45;;;1.50;;
44774;SDS011;31340;51.402;0.016;2022-11-03T09:56:31;4.00;;;1.30;;
44774;SDS011;31340;51.402;0.016;2022-11-03T09:59:06;3.65;;;1.33;;
44774;SDS011;31340;51.402;0.016;2022-11-03T10:01:42;5.50;;;1.58;;
44774;SDS011;31340;51.402;0.016;2022-11-03T10:04:11;4.65;;;1.50;;
44774;SDS011;31340;51.402;0.016;2022-11-03T10:06:39;6.85;;;1.42;;
44774;SDS011;31340;51.402;0.016;2022-11-03T10:09:11;10.20;;;2.33;;
44774;SDS011;31340;51.402;0.016;2022-11-03T10:11:42;5.90;;;2.08;;
44774;SDS011;31340;51.402;0.016;2022-11-03T10:14:12;6.07;;;2.25;;
44774;SDS011;31340;51.402;0.016;2022-11-03T10:16:42;13.00;;;2.27;;
44774;SDS011;31340;51.402;0.016;2022-11-03T10:19:19;5.13;;;2.08;;
44774;SDS011;31340;51.402;0.016;2022-11-03T10:21:47;8.90;;;2.65;;
44774;SDS011;31340;51.402;0.016;2022-11-03T10:24:14;7.18;;;2.22;;
44774;SDS011;31340;51.402;0.016;2022-11-03T10:26:46;5.40;;;1.92;;
44774;SDS011;31340;51.402;0.016;2022-11-03T10:29:19;5.40;;;2.30;;
44774;SDS011;31340;51.402;0.016;2022-11-03T10:31:50;3.67;;;1.25;;
44774;SDS011;31340;51.402;0.016;2022-11-03T10:37:13;7.10;;;1.60;;
44774;SDS011;31340;51.402;0.016;2022-11-03T10:39:43;4.32;;;1.55;;
44774;SDS011;31340;51.402;0.016;2022-11-03T10:42:21;9.55;;;1.50;;
44774;SDS011;31340;51.402;0.016;2022-11-03T10:45:09;6.30;;;1.50;;
44774;SDS011;31340;51.402;0.016;2022-11-03T10:47:41;4.03;;;1.42;;
44774;SDS011;31340;51.402;0.016;2022-11-03T10:55:18;11.68;;;2.45;;
44774;SDS011;31340;51.402;0.016;2022-11-03T10:57:51;6.10;;;1.25;;
44774;SDS011;31340;51.402;0.016;2022-11-03T11:00:21;5.40;;;1.30;;
44774;SDS011;31340;51.402;0.016;2022-11-03T11:02:50;6.10;;;2.10;;
44774;SDS011;31340;51.402;0.016;2022-11-03T11:05:22;8.90;;;1.85;;
44774;SDS011;31340;51.402;0.016;2022-11-03T11:07:51;7.00;;;2.25;;
44774;SDS011;31340;51.402;0.016;2022-11-03T11:10:21;8.82;;;2.30;;
44774;SDS011;31340;51.402;0.016;2022-11-03T11:13:03;4.47;;;1.98;;
44774;SDS011;31340;51.402;0.016;2022-11-03T11:18:05;7.30;;;2.80;;
44774;SDS011;31340;51.402;0.016;2022-11-03T11:20:35;15.10;;;5.72;;
44774;SDS011;31340;51.402;0.016;2022-11-03T11:28:44;8.68;;;4.10;;
44774;SDS011;31340;51.402;0.016;2022-11-03T11:31:26;6.35;;;2.40;;
44774;SDS011;31340;51.402;0.016;2022-11-03T11:42:06;5.43;;;2.05;;
44774;SDS011;31340;51.402;0.016;2022-11-03T11:52:26;2.95;;;1.50;;
44774;SDS011;31340;51.402;0.016;2022-11-03T11:54:54;6.97;;;1.80;;
44774;SDS011;31340;51.402;0.016;2022-11-03T11:57:22;2.70;;;1.40;;
44774;SDS011;31340;51.402;0.016;2022-11-03T11:59:51;8.85;;;1.83;;
44774;SDS011;31340;51.402;0.016;2022-11-03T12:02:22;3.97;;;1.80;;
44774;SDS011;31340;51.402;0.016;2022-11-03T12:04:51;6.43;;;1.70;;
44774;SDS011;31340;51.402;0.016;2022-11-03T12:07:31;10.45;;;2.50;;
44774;SDS011;31340;51.402;0.016;2022-11-03T12:10:08;8.95;;;2.60;;
44774;SDS011;31340;51.402;0.016;2022-11-03T12:12:44;5.88;;;1.73;;
44774;SDS011;31340;51.402;0.016;2022-11-03T12:21:11;5.22;;;2.47;;
44774;SDS011;31340;51.402;0.016;2022-11-03T12:23:59;8.40;;;2.47;;
44774;SDS011;31340;51.402;0.016;2022-11-03T12:28:55;5.60;;;2.50;;
44774;SDS011;31340;51.402;0.016;2022-11-03T12:31:22;4.55;;;2.75;;
44774;SDS011;31340;51.402;0.016;2022-11-03T12:33:50;4.18;;;2.38;;
44774;SDS011;31340;51.402;0.016;2022-11-03T12:36:18;10.68;;;3.03;;
44774;SDS011;31340;51.402;0.016;2022-11-03T12:38:45;4.93;;;2.55;;
44774;SDS011;31340;51.402;0.016;2022-11-03T12:41:13;9.23;;;2.80;;
44774;SDS011;31340;51.402;0.016;2022-11-03T12:43:52;5.18;;;2.17;;
44774;SDS011;31340;51.402;0.016;2022-11-03T12:48:51;5.57;;;2.63;;
44774;SDS011;31340;51.402;0.016;2022-11-03T12:51:20;4.18;;;1.98;;
44774;SDS011;31340;51.402;0.016;2022-11-03T12:53:48;5.00;;;1.92;;
44774;SDS011;31340;51.402;0.016;2022-11-03T12:56:17;5.68;;;1.70;;
44774;SDS011;31340;51.402;0.016;2022-11-03T12:58:45;8.02;;;1.80;;
44774;SDS011;31340;51.402;0.016;2022-11-03T13:01:13;4.22;;;1.95;;
44774;SDS011;31340;51.402;0.016;2022-11-03T13:03:41;5.30;;;2.17;;
44774;SDS011;31340;51.402;0.016;2022-11-03T13:06:09;4.68;;;2.15;;
44774;SDS011;31340;51.402;0.016;2022-11-03T13:08:40;3.55;;;1.52;;
44774;SDS011;31340;51.402;0.016;2022-11-03T13:11:08;4.93;;;2.10;;
44774;SDS011;31340;51.402;0.016;2022-11-03T13:13:54;4.45;;;1.95;;
44774;SDS011;31340;51.402;0.016;2022-11-03T13:16:22;8.50;;;2.10;;
44774;SDS011;31340;51.402;0.016;2022-11-03T13:18:49;4.22;;;1.65;;
44774;SDS011;31340;51.402;0.016;2022-11-03T13:21:17;5.57;;;1.90;;
44774;SDS011;31340;51.402;0.016;2022-11-03T13:23:44;4.07;;;1.58;;
44774;SDS011;31340;51.402;0.016;2022-11-03T13:26:12;5.60;;;1.90;;
44774;SDS011;31340;51.402;0.016;2022-11-03T13:28:40;4.53;;;1.67;;
44774;SDS011;31340;51.402;0.016;2022-11-03T13:31:08;3.55;;;1.80;;
44774;SDS011;31340;51.402;0.016;2022-11-03T13:33:36;6.65;;;1.88;;
44774;SDS011;31340;51.402;0.016;2022-11-03T13:36:04;8.15;;;1.92;;
44774;SDS011;31340;51.402;0.016;2022-11-03T13:38:32;4.18;;;1.60;;
44774;SDS011;31340;51.402;0.016;2022-11-03T13:41:00;7.78;;;1.75;;
44774;SDS011;31340;51.402;0.016;2022-11-03T13:43:34;4.00;;;1.58;;
44774;SDS011;31340;51.402;0.016;2022-11-03T13:46:01;3.33;;;1.55;;
44774;SDS011;31340;51.402;0.016;2022-11-03T13:48:31;6.60;;;1.33;;
44774;SDS011;31340;51.402;0.016;2022-11-03T13:51:19;5.40;;;1.27;;
44774;SDS011;31340;51.402;0.016;2022-11-03T13:53:47;4.63;;;1.33;;
44774;SDS011;31340;51.402;0.016;2022-11-03T13:56:35;4.70;;;1.10;;
44774;SDS011;31340;51.402;0.016;2022-11-03T13:59:22;4.15;;;1.40;;
44774;SDS011;31340;51.402;0.016;2022-11-03T14:01:50;4.88;;;1.42;;
44774;SDS011;31340;51.402;0.016;2022-11-03T14:04:38;6.93;;;1.67;;
44774;SDS011;31340;51.402;0.016;2022-11-03T14:07:11;6.55;;;2.00;;
44774;SDS011;31340;51.402;0.016;2022-11-03T14:09:39;5.47;;;2.33;;
44774;SDS011;31340;51.402;0.016;2022-11-03T14:12:07;4.65;;;2.05;;
44774;SDS011;31340;51.402;0.016;2022-11-03T14:14:53;4.68;;;2.20;;
44774;SDS011;31340;51.402;0.016;2022-11-03T14:17:21;6.53;;;1.90;;
44774;SDS011;31340;51.402;0.016;2022-11-03T14:19:50;7.45;;;1.88;;
44774;SDS011;31340;51.402;0.016;2022-11-03T14:22:25;7.15;;;2.05;;
44774;SDS011;31340;51.402;0.016;2022-11-03T14:24:52;3.90;;;1.50;;
44774;SDS011;31340;51.402;0.016;2022-11-03T14:27:20;3.63;;;1.60;;
44774;SDS011;31340;51.402;0.016;2022-11-03T14:29:48;2.97;;;1.63;;
44774;SDS011;31340;51.402;0.016;2022-11-03T14:32:16;5.93;;;2.03;;
44774;SDS011;31340;51.402;0.016;2022-11-03T14:34:44;4.35;;;1.90;;
44774;SDS011;31340;51.402;0.016;2022-11-03T14:37:13;5.25;;;1.50;;
44774;SDS011;31340;51.402;0.016;2022-11-03T14:39:41;5.68;;;1.88;;
44774;SDS011;31340;51.402;0.016;2022-11-03T14:42:10;8.25;;;2.50;;
44774;SDS011;31340;51.402;0.016;2022-11-03T14:44:43;3.88;;;1.63;;
44774;SDS011;31340;51.402;0.016;2022-11-03T14:47:13;4.75;;;1.90;;
44774;SDS011;31340;51.402;0.016;2022-11-03T14:49:43;5.72;;;1.70;;
44774;SDS011;31340;51.402;0.016;2022-11-03T14:52:14;3.00;;;1.50;;
44774;SDS011;31340;51.402;0.016;2022-11-03T14:57:10;4.18;;;1.45;;
44774;SDS011;31340;51.402;0.016;2022-11-03T14:59:38;4.75;;;1.77;;
44774;SDS011;31340;51.402;0.016;2022-11-03T15:02:06;5.47;;;2.00;;
44774;SDS011;31340;51.402;0.016;2022-11-03T15:04:34;6.10;;;2.30;;
44774;SDS011;31340;51.402;0.016;2022-11-03T15:07:01;3.70;;;1.70;;
44774;SDS011;31340;51.402;0.016;2022-11-03T15:09:29;8.00;;;2.58;;
44774;SDS011;31340;51.402;0.016;2022-11-03T15:11:57;6.32;;;2.38;;
44774;SDS011;31340;51.402;0.016;2022-11-03T15:14:27;6.57;;;2.65;;
44774;SDS011;31340;51.402;0.016;2022-11-03T15:16:55;7.20;;;2.20;;
44774;SDS011;31340;51.402;0.016;2022-11-03T15:19:23;4.95;;;1.98;;
44774;SDS011;31340;51.402;0.016;2022-11-03T15:21:50;5.07;;;2.05;;
44774;SDS011;31340;51.402;0.016;2022-11-03T15:24:18;6.88;;;2.10;;
44774;SDS011;31340;51.402;0.016;2022-11-03T15:27:05;6.35;;;2.22;;
44774;SDS011;31340;51.402;0.016;2022-11-03T15:29:33;4.18;;;2.33;;
44774;SDS011;31340;51.402;0.016;2022-11-03T15:32:00;8.48;;;2.25;;
44774;SDS011;31340;51.402;0.016;2022-11-03T15:34:27;4.38;;;2.00;;
44774;SDS011;31340;51.402;0.016;2022-11-03T15:36:55;2.92;;;1.70;;
44774;SDS011;31340;51.402;0.016;2022-11-03T15:39:23;5.93;;;1.80;;
44774;SDS011;31340;51.402;0.016;2022-11-03T15:41:51;4.38;;;1.60;;
44774;SDS011;31340;51.402;0.016;2022-11-03T15:44:18;6.35;;;1.88;;
44774;SDS011;31340;51.402;0.016;2022-11-03T15:46:46;6.13;;;2.15;;
44774;SDS011;31340;51.402;0.016;2022-11-03T15:49:14;4.53;;;2.20;;
44774;SDS011;31340;51.402;0.016;2022-11-03T15:51:41;4.65;;;1.98;;
44774;SDS011;31340;51.402;0.016;2022-11-03T15:54:09;5.05;;;2.17;;
44774;SDS011;31340;51.402;0.016;2022-11-03T15:56:37;4.60;;;1.83;;
44774;SDS011;31340;51.402;0.016;2022-11-03T15:59:04;4.55;;;2.22;;
44774;SDS011;31340;51.402;0.016;2022-11-03T16:01:33;5.82;;;2.20;;
44774;SDS011;31340;51.402;0.016;2022-11-03T16:04:03;8.07;;;2.50;;
44774;SDS011;31340;51.402;0.016;2022-11-03T16:06:31;5.00;;;2.10;;
44774;SDS011;31340;51.402;0.016;2022-11-03T16:09:19;7.60;;;2.35;;
44774;SDS011;31340;51.402;0.016;2022-11-03T16:11:47;7.40;;;2.50;;
44774;SDS011;31340;51.402;0.016;2022-11-03T16:14:14;7.63;;;3.15;;
44774;SDS011;31340;51.402;0.016;2022-11-03T16:16:42;8.32;;;2.90;;
44774;SDS011;31340;51.402;0.016;2022-11-03T16:19:09;8.75;;;2.60;;
44774;SDS011;31340;51.402;0.016;2022-11-03T16:21:37;7.15;;;2.40;;
44774;SDS011;31340;51.402;0.016;2022-11-03T16:24:04;7.32;;;2.88;;
44774;SDS011;31340;51.402;0.016;2022-11-03T16:26:32;9.10;;;2.95;;
44774;SDS011;31340;51.402;0.016;2022-11-03T16:28:59;7.20;;;2.67;;
44774;SDS011;31340;51.402;0.016;2022-11-03T16:31:27;4.85;;;2.20;;
44774;SDS011;31340;51.402;0.016;2022-11-03T16:33:55;8.45;;;3.28;;
44774;SDS011;31340;51.402;0.016;2022-11-03T16:36:22;10.30;;;3.35;;
44774;SDS011;31340;51.402;0.016;2022-11-03T16:38:50;9.48;;;2.53;;
44774;SDS011;31340;51.402;0.016;2022-11-03T16:41:17;9.90;;;2.50;;
44774;SDS011;31340;51.402;0.016;2022-11-03T16:43:45;8.10;;;3.20;;
44774;SDS011;31340;51.402;0.016;2022-11-03T16:46:14;6.15;;;3.15;;
44774;SDS011;31340;51.402;0.016;2022-11-03T16:48:41;7.22;;;2.97;;
44774;SDS011;31340;51.402;0.016;2022-11-03T16:51:09;8.00;;;3.20;;
44774;SDS011;31340;51.402;0.016;2022-11-03T16:53:37;10.80;;;3.15;;